sensor_id;sensor_type;location;lat;lon;timestamp;temperature;humidity
54168;DHT22;68429;50.958;3.592;2023-03-25T00:00:58;8.80;99.90
54168;DHT22;68429;50.958;3.592;2023-03-25T00:03:30;8.70;99.90
54168;DHT22;68429;50.958;3.592;2023-03-25T00:05:58;8.70;99.90
54168;DHT22;68429;50.958;3.592;2023-03-25T00:08:24;8.60;99.90
54168;DHT22;68429;50.958;3.592;2023-03-25T00:10:55;8.60;99.90
54168;DHT22;68429;50.958;3.592;2023-03-25T00:13:22;8.60;99.90
54168;DHT22;68429;50.958;3.592;2023-03-25T00:15:49;8.50;99.90
54168;DHT22;68429;50.958;3.592;2023-03-25T00:18:18;8.50;99.90
54168;DHT22;68429;50.958;3.592;2023-03-25T00:20:45;8.50;99.90
54168;DHT22;68429;50.958;3.592;2023-03-25T00:23:14;8.60;99.90
54168;DHT22;68429;50.958;3.592;2023-03-25T00:25:40;8.60;99.90
54168;DHT22;68429;50.958;3.592;2023-03-25T00:28:06;8.50;99.90
54168;DHT22;68429;50.958;3.592;2023-03-25T00:30:32;8.50;99.90
54168;DHT22;68429;50.958;3.592;2023-03-25T00:32:58;8.40;99.90
54168;DHT22;68429;50.958;3.592;2023-03-25T00:35:26;8.40;99.90
54168;DHT22;68429;50.958;3.592;2023-03-25T00:37:53;8.40;99.90
54168;DHT22;68429;50.958;3.592;2023-03-25T00:40:26;8.40;99.90
54168;DHT22;68429;50.958;3.592;2023-03-25T00:42:53;8.40;99.90
54168;DHT22;68429;50.958;3.592;2023-03-25T00:45:19;8.40;99.90
54168;DHT22;68429;50.958;3.592;2023-03-25T00:47:45;8.40;99.90
54168;DHT22;68429;50.958;3.592;2023-03-25T00:50:11;8.30;99.90
54168;DHT22;68429;50.958;3.592;2023-03-25T00:52:37;8.40;99.90
54168;DHT22;68429;50.958;3.592;2023-03-25T00:55:03;8.40;99.90
54168;DHT22;68429;50.958;3.592;2023-03-25T00:57:30;8.40;99.90
54168;DHT22;68429;50.958;3.592;2023-03-25T00:59:56;8.40;99.90
54168;DHT22;68429;50.958;3.592;2023-03-25T01:02:22;8.40;99.90
54168;DHT22;68429;50.958;3.592;2023-03-25T01:04:48;8.40;99.90
54168;DHT22;68429;50.958;3.592;2023-03-25T01:07:18;8.40;99.90
54168;DHT22;68429;50.958;3.592;2023-03-25T01:09:47;8.40;99.90
54168;DHT22;68429;50.958;3.592;2023-03-25T01:12:14;8.40;99.90
54168;DHT22;68429;50.958;3.592;2023-03-25T01:14:40;8.40;99.90
54168;DHT22;68429;50.958;3.592;2023-03-25T01:17:06;8.40;99.90
54168;DHT22;68429;50.958;3.592;2023-03-25T01:19:32;8.40;99.90
54168;DHT22;68429;50.958;3.592;2023-03-25T01:21:58;8.40;99.90
54168;DHT22;68429;50.958;3.592;2023-03-25T01:24:24;8.40;99.90
54168;DHT22;68429;50.958;3.592;2023-03-25T01:26:50;8.40;99.90
54168;DHT22;68429;50.958;3.592;2023-03-25T01:29:19;8.50;99.90
54168;DHT22;68429;50.958;3.592;2023-03-25T01:31:45;8.50;99.90
54168;DHT22;68429;50.958;3.592;2023-03-25T01:34:11;8.60;99.90
54168;DHT22;68429;50.958;3.592;2023-03-25T01:36:37;8.60;99.90
54168;DHT22;68429;50.958;3.592;2023-03-25T01:39:05;8.60;99.90
54168;DHT22;68429;50.958;3.592;2023-03-25T01:41:32;8.70;99.90
54168;DHT22;68429;50.958;3.592;2023-03-25T01:45:09;8.70;99.90
54168;DHT22;68429;50.958;3.592;2023-03-25T01:46:57;8.70;99.90
54168;DHT22;68429;50.958;3.592;2023-03-25T01:49:38;8.80;99.90
54168;DHT22;68429;50.958;3.592;2023-03-25T01:54:34;8.90;99.90
54168;DHT22;68429;50.958;3.592;2023-03-25T01:57:03;8.90;99.90
54168;DHT22;68429;50.958;3.592;2023-03-25T01:59:30;8.90;99.90
54168;DHT22;68429;50.958;3.592;2023-03-25T02:01:57;8.80;99.90
54168;DHT22;68429;50.958;3.592;2023-03-25T02:06:59;8.80;99.90
54168;DHT22;68429;50.958;3.592;2023-03-25T02:09:25;8.90;99.90
54168;DHT22;68429;50.958;3.592;2023-03-25T02:11:51;8.90;99.90
54168;DHT22;68429;50.958;3.592;2023-03-25T02:14:25;8.90;99.90
54168;DHT22;68429;50.958;3.592;2023-03-25T02:17:23;8.90;99.90
54168;DHT22;68429;50.958;3.592;2023-03-25T02:33:52;8.60;99.90
54168;DHT22;68429;50.958;3.592;2023-03-25T02:36:59;8.50;99.90
54168;DHT22;68429;50.958;3.592;2023-03-25T02:39:48;8.50;99.90
54168;DHT22;68429;50.958;3.592;2023-03-25T02:42:49;8.40;99.90
54168;DHT22;68429;50.958;3.592;2023-03-25T02:45:31;8.40;99.90
54168;DHT22;68429;50.958;3.592;2023-03-25T02:48:15;8.30;99.90
54168;DHT22;68429;50.958;3.592;2023-03-25T02:50:47;8.30;99.90
54168;DHT22;68429;50.958;3.592;2023-03-25T02:53:21;8.30;99.90
54168;DHT22;68429;50.958;3.592;2023-03-25T02:55:49;8.30;99.90
54168;DHT22;68429;50.958;3.592;2023-03-25T02:58:20;8.30;99.90
54168;DHT22;68429;50.958;3.592;2023-03-25T03:00:48;8.30;99.90
54168;DHT22;68429;50.958;3.592;2023-03-25T03:03:14;8.30;99.90
54168;DHT22;68429;50.958;3.592;2023-03-25T03:05:45;8.30;99.90
54168;DHT22;68429;50.958;3.592;2023-03-25T03:22:00;8.50;99.90
54168;DHT22;68429;50.958;3.592;2023-03-25T03:24:36;8.60;99.90
54168;DHT22;68429;50.958;3.592;2023-03-25T03:27:27;8.60;99.90
54168;DHT22;68429;50.958;3.592;2023-03-25T03:30:18;8.70;99.90
54168;DHT22;68429;50.958;3.592;2023-03-25T03:32:59;8.70;99.90
54168;DHT22;68429;50.958;3.592;2023-03-25T03:35:33;8.70;99.90
54168;DHT22;68429;50.958;3.592;2023-03-25T03:38:06;8.80;99.90
54168;DHT22;68429;50.958;3.592;2023-03-25T03:40:38;8.80;99.90
54168;DHT22;68429;50.958;3.592;2023-03-25T03:43:24;8.80;99.90
54168;DHT22;68429;50.958;3.592;2023-03-25T03:45:53;8.70;99.90
54168;DHT22;68429;50.958;3.592;2023-03-25T03:48:27;8.70;99.90
54168;DHT22;68429;50.958;3.592;2023-03-25T03:50:57;8.70;99.90
54168;DHT22;68429;50.958;3.592;2023-03-25T03:53:43;8.80;99.90
54168;DHT22;68429;50.958;3.592;2023-03-25T03:56:25;8.70;99.90
54168;DHT22;68429;50.958;3.592;2023-03-25T03:58:57;8.80;99.90
54168;DHT22;68429;50.958;3.592;2023-03-25T04:01:34;8.80;99.90
54168;DHT22;68429;50.958;3.592;2023-03-25T04:04:08;8.90;99.90
54168;DHT22;68429;50.958;3.592;2023-03-25T04:06:38;8.80;99.90
54168;DHT22;68429;50.958;3.592;2023-03-25T04:14:35;8.70;99.90
54168;DHT22;68429;50.958;3.592;2023-03-25T04:17:01;8.60;99.90
54168;DHT22;68429;50.958;3.592;2023-03-25T04:19:27;8.60;99.90
54168;DHT22;68429;50.958;3.592;2023-03-25T04:21:53;8.60;99.90
54168;DHT22;68429;50.958;3.592;2023-03-25T04:24:18;8.60;99.90
54168;DHT22;68429;50.958;3.592;2023-03-25T04:26:45;8.50;99.90
54168;DHT22;68429;50.958;3.592;2023-03-25T04:29:10;8.50;99.90
54168;DHT22;68429;50.958;3.592;2023-03-25T04:31:38;8.60;99.90
54168;DHT22;68429;50.958;3.592;2023-03-25T04:34:11;8.50;99.90
54168;DHT22;68429;50.958;3.592;2023-03-25T04:36:38;8.50;99.90
54168;DHT22;68429;50.958;3.592;2023-03-25T04:39:06;8.50;99.90
54168;DHT22;68429;50.958;3.592;2023-03-25T04:41:32;8.50;99.90
54168;DHT22;68429;50.958;3.592;2023-03-25T04:43:58;8.50;99.90
54168;DHT22;68429;50.958;3.592;2023-03-25T04:46:24;8.50;99.90
54168;DHT22;68429;50.958;3.592;2023-03-25T04:48:50;8.50;99.90
54168;DHT22;68429;50.958;3.592;2023-03-25T04:51:18;8.50;99.90
54168;DHT22;68429;50.958;3.592;2023-03-25T04:53:44;8.50;99.90
54168;DHT22;68429;50.958;3.592;2023-03-25T04:56:15;8.50;99.90
54168;DHT22;68429;50.958;3.592;2023-03-25T04:58:45;8.60;99.90
54168;DHT22;68429;50.958;3.592;2023-03-25T05:01:26;8.60;99.90
54168;DHT22;68429;50.958;3.592;2023-03-25T05:03:59;8.70;99.90
54168;DHT22;68429;50.958;3.592;2023-03-25T05:06:32;8.60;99.90
54168;DHT22;68429;50.958;3.592;2023-03-25T05:08:59;8.70;99.90
54168;DHT22;68429;50.958;3.592;2023-03-25T05:11:27;8.70;99.90
54168;DHT22;68429;50.958;3.592;2023-03-25T05:13:53;8.70;99.90
54168;DHT22;68429;50.958;3.592;2023-03-25T05:16:19;8.50;99.90
54168;DHT22;68429;50.958;3.592;2023-03-25T05:18:45;8.50;99.90
54168;DHT22;68429;50.958;3.592;2023-03-25T05:21:10;8.60;99.90
54168;DHT22;68429;50.958;3.592;2023-03-25T05:23:37;8.50;99.90
54168;DHT22;68429;50.958;3.592;2023-03-25T05:26:03;8.50;99.90
54168;DHT22;68429;50.958;3.592;2023-03-25T05:28:29;8.50;99.90
54168;DHT22;68429;50.958;3.592;2023-03-25T05:30:55;8.40;99.90
54168;DHT22;68429;50.958;3.592;2023-03-25T05:33:21;8.40;99.90
54168;DHT22;68429;50.958;3.592;2023-03-25T05:35:47;8.40;99.90
54168;DHT22;68429;50.958;3.592;2023-03-25T05:38:14;8.40;99.90
54168;DHT22;68429;50.958;3.592;2023-03-25T05:40:46;8.40;99.90
54168;DHT22;68429;50.958;3.592;2023-03-25T05:43:16;8.50;99.90
54168;DHT22;68429;50.958;3.592;2023-03-25T05:45:42;8.50;99.90
54168;DHT22;68429;50.958;3.592;2023-03-25T05:48:09;8.50;99.90
54168;DHT22;68429;50.958;3.592;2023-03-25T05:50:36;8.50;99.90
54168;DHT22;68429;50.958;3.592;2023-03-25T05:53:02;8.60;99.90
54168;DHT22;68429;50.958;3.592;2023-03-25T05:55:28;8.60;99.90
54168;DHT22;68429;50.958;3.592;2023-03-25T05:57:54;8.70;99.90
54168;DHT22;68429;50.958;3.592;2023-03-25T06:00:21;8.70;99.90
54168;DHT22;68429;50.958;3.592;2023-03-25T06:02:48;8.70;99.90
54168;DHT22;68429;50.958;3.592;2023-03-25T06:05:14;8.80;99.90
54168;DHT22;68429;50.958;3.592;2023-03-25T06:07:42;8.80;99.90
54168;DHT22;68429;50.958;3.592;2023-03-25T06:10:09;8.80;99.90
54168;DHT22;68429;50.958;3.592;2023-03-25T06:12:35;8.80;99.90
54168;DHT22;68429;50.958;3.592;2023-03-25T06:15:14;8.80;99.90
54168;DHT22;68429;50.958;3.592;2023-03-25T06:17:42;8.80;99.90
54168;DHT22;68429;50.958;3.592;2023-03-25T06:20:12;8.90;99.90
54168;DHT22;68429;50.958;3.592;2023-03-25T06:22:43;9.00;99.90
54168;DHT22;68429;50.958;3.592;2023-03-25T06:25:12;9.00;99.90
54168;DHT22;68429;50.958;3.592;2023-03-25T06:27:38;9.10;99.90
54168;DHT22;68429;50.958;3.592;2023-03-25T06:30:20;9.10;99.90
54168;DHT22;68429;50.958;3.592;2023-03-25T06:32:46;9.20;99.90
54168;DHT22;68429;50.958;3.592;2023-03-25T06:35:15;9.20;99.90
54168;DHT22;68429;50.958;3.592;2023-03-25T06:37:47;9.30;99.90
54168;DHT22;68429;50.958;3.592;2023-03-25T06:40:13;9.40;99.90
54168;DHT22;68429;50.958;3.592;2023-03-25T06:42:39;9.30;99.90
54168;DHT22;68429;50.958;3.592;2023-03-25T06:45:07;9.40;99.90
54168;DHT22;68429;50.958;3.592;2023-03-25T06:47:33;9.40;99.90
54168;DHT22;68429;50.958;3.592;2023-03-25T06:49:59;9.30;99.90
54168;DHT22;68429;50.958;3.592;2023-03-25T06:52:24;9.40;99.90
54168;DHT22;68429;50.958;3.592;2023-03-25T06:54:50;9.40;99.90
54168;DHT22;68429;50.958;3.592;2023-03-25T06:57:16;9.40;99.90
54168;DHT22;68429;50.958;3.592;2023-03-25T06:59:41;9.50;99.90
54168;DHT22;68429;50.958;3.592;2023-03-25T07:02:11;9.60;99.90
54168;DHT22;68429;50.958;3.592;2023-03-25T07:04:36;9.70;99.90
54168;DHT22;68429;50.958;3.592;2023-03-25T07:07:02;9.70;99.90
54168;DHT22;68429;50.958;3.592;2023-03-25T07:09:28;9.60;99.90
54168;DHT22;68429;50.958;3.592;2023-03-25T07:11:53;9.60;99.90
54168;DHT22;68429;50.958;3.592;2023-03-25T07:14:19;9.60;99.90
54168;DHT22;68429;50.958;3.592;2023-03-25T07:16:45;9.50;99.90
54168;DHT22;68429;50.958;3.592;2023-03-25T07:19:11;9.50;99.90
54168;DHT22;68429;50.958;3.592;2023-03-25T07:21:36;9.70;99.90
54168;DHT22;68429;50.958;3.592;2023-03-25T07:24:02;9.70;99.90
54168;DHT22;68429;50.958;3.592;2023-03-25T07:26:28;9.70;99.90
54168;DHT22;68429;50.958;3.592;2023-03-25T07:28:53;9.70;99.90
54168;DHT22;68429;50.958;3.592;2023-03-25T07:31:19;9.70;99.90
54168;DHT22;68429;50.958;3.592;2023-03-25T07:33:45;9.70;99.90
54168;DHT22;68429;50.958;3.592;2023-03-25T07:36:11;9.90;99.90
54168;DHT22;68429;50.958;3.592;2023-03-25T07:38:38;9.80;99.90
54168;DHT22;68429;50.958;3.592;2023-03-25T07:41:05;9.90;99.90
54168;DHT22;68429;50.958;3.592;2023-03-25T07:43:31;10.00;99.90
54168;DHT22;68429;50.958;3.592;2023-03-25T07:45:57;10.00;99.90
54168;DHT22;68429;50.958;3.592;2023-03-25T07:48:23;10.00;99.90
54168;DHT22;68429;50.958;3.592;2023-03-25T07:50:50;10.00;99.90
54168;DHT22;68429;50.958;3.592;2023-03-25T07:53:16;10.10;99.90
54168;DHT22;68429;50.958;3.592;2023-03-25T07:55:43;10.20;99.90
54168;DHT22;68429;50.958;3.592;2023-03-25T07:58:10;10.10;99.90
54168;DHT22;68429;50.958;3.592;2023-03-25T08:00:36;10.20;99.90
54168;DHT22;68429;50.958;3.592;2023-03-25T08:03:02;10.20;99.90
54168;DHT22;68429;50.958;3.592;2023-03-25T08:05:29;10.20;99.90
54168;DHT22;68429;50.958;3.592;2023-03-25T08:07:55;10.30;99.90
54168;DHT22;68429;50.958;3.592;2023-03-25T08:10:25;10.30;99.90
54168;DHT22;68429;50.958;3.592;2023-03-25T08:12:51;10.40;99.90
54168;DHT22;68429;50.958;3.592;2023-03-25T08:15:20;10.40;99.90
54168;DHT22;68429;50.958;3.592;2023-03-25T08:17:49;10.40;99.90
54168;DHT22;68429;50.958;3.592;2023-03-25T08:20:17;10.40;99.90
54168;DHT22;68429;50.958;3.592;2023-03-25T08:22:46;10.60;99.90
54168;DHT22;68429;50.958;3.592;2023-03-25T08:25:12;10.70;99.90
54168;DHT22;68429;50.958;3.592;2023-03-25T08:27:39;10.70;99.90
54168;DHT22;68429;50.958;3.592;2023-03-25T08:30:05;10.70;99.90
54168;DHT22;68429;50.958;3.592;2023-03-25T08:32:33;10.90;99.90
54168;DHT22;68429;50.958;3.592;2023-03-25T08:35:00;10.90;99.90
54168;DHT22;68429;50.958;3.592;2023-03-25T08:37:29;10.80;99.90
54168;DHT22;68429;50.958;3.592;2023-03-25T08:40:00;10.80;99.90
54168;DHT22;68429;50.958;3.592;2023-03-25T08:42:26;10.70;99.90
54168;DHT22;68429;50.958;3.592;2023-03-25T08:44:51;10.70;99.90
54168;DHT22;68429;50.958;3.592;2023-03-25T08:47:17;10.70;99.90
54168;DHT22;68429;50.958;3.592;2023-03-25T08:49:43;10.70;99.90
54168;DHT22;68429;50.958;3.592;2023-03-25T08:52:08;10.70;99.90
54168;DHT22;68429;50.958;3.592;2023-03-25T08:54:34;10.80;99.90
54168;DHT22;68429;50.958;3.592;2023-03-25T08:57:00;10.90;99.90
54168;DHT22;68429;50.958;3.592;2023-03-25T08:59:26;11.00;99.90
54168;DHT22;68429;50.958;3.592;2023-03-25T09:01:52;11.00;99.90
54168;DHT22;68429;50.958;3.592;2023-03-25T09:04:18;11.00;99.90
54168;DHT22;68429;50.958;3.592;2023-03-25T09:06:44;10.90;99.90
54168;DHT22;68429;50.958;3.592;2023-03-25T09:09:10;10.90;99.90
54168;DHT22;68429;50.958;3.592;2023-03-25T09:11:36;10.90;99.90
54168;DHT22;68429;50.958;3.592;2023-03-25T09:14:03;11.10;99.90
54168;DHT22;68429;50.958;3.592;2023-03-25T09:16:30;11.40;99.90
54168;DHT22;68429;50.958;3.592;2023-03-25T09:18:56;11.60;99.90
54168;DHT22;68429;50.958;3.592;2023-03-25T09:21:22;11.40;99.90
54168;DHT22;68429;50.958;3.592;2023-03-25T09:23:47;11.40;99.90
54168;DHT22;68429;50.958;3.592;2023-03-25T09:26:13;11.40;99.90
54168;DHT22;68429;50.958;3.592;2023-03-25T09:28:39;11.50;99.90
54168;DHT22;68429;50.958;3.592;2023-03-25T09:31:05;11.90;99.90
54168;DHT22;68429;50.958;3.592;2023-03-25T09:33:31;12.30;99.90
54168;DHT22;68429;50.958;3.592;2023-03-25T09:35:56;12.90;99.90
54168;DHT22;68429;50.958;3.592;2023-03-25T09:38:22;13.40;99.90
54168;DHT22;68429;50.958;3.592;2023-03-25T09:40:48;13.80;99.90
54168;DHT22;68429;50.958;3.592;2023-03-25T09:45:47;13.60;99.90
54168;DHT22;68429;50.958;3.592;2023-03-25T09:50:47;13.00;99.90
54168;DHT22;68429;50.958;3.592;2023-03-25T09:53:26;12.90;99.90
54168;DHT22;68429;50.958;3.592;2023-03-25T09:55:53;12.70;99.90
54168;DHT22;68429;50.958;3.592;2023-03-25T09:58:26;12.50;99.90
54168;DHT22;68429;50.958;3.592;2023-03-25T10:09:40;13.80;99.90
54168;DHT22;68429;50.958;3.592;2023-03-25T10:12:24;14.80;99.90
54168;DHT22;68429;50.958;3.592;2023-03-25T10:15:25;15.40;99.90
54168;DHT22;68429;50.958;3.592;2023-03-25T10:18:20;15.50;99.90
54168;DHT22;68429;50.958;3.592;2023-03-25T10:20:58;15.10;99.90
54168;DHT22;68429;50.958;3.592;2023-03-25T10:26:12;14.80;99.90
54168;DHT22;68429;50.958;3.592;2023-03-25T10:28:46;14.50;99.90
54168;DHT22;68429;50.958;3.592;2023-03-25T10:31:16;14.20;99.90
54168;DHT22;68429;50.958;3.592;2023-03-25T10:33:53;13.40;99.90
54168;DHT22;68429;50.958;3.592;2023-03-25T10:36:39;12.60;99.90
54168;DHT22;68429;50.958;3.592;2023-03-25T10:39:13;11.50;99.90
54168;DHT22;68429;50.958;3.592;2023-03-25T10:41:46;10.80;99.90
54168;DHT22;68429;50.958;3.592;2023-03-25T10:44:14;10.50;99.90
54168;DHT22;68429;50.958;3.592;2023-03-25T10:46:55;10.40;99.90
54168;DHT22;68429;50.958;3.592;2023-03-25T10:49:26;10.30;99.90
54168;DHT22;68429;50.958;3.592;2023-03-25T10:51:53;10.70;99.90
54168;DHT22;68429;50.958;3.592;2023-03-25T10:54:34;11.20;99.90
54168;DHT22;68429;50.958;3.592;2023-03-25T10:57:02;12.40;99.90
54168;DHT22;68429;50.958;3.592;2023-03-25T10:59:30;12.90;99.90
54168;DHT22;68429;50.958;3.592;2023-03-25T11:02:04;13.20;99.90
54168;DHT22;68429;50.958;3.592;2023-03-25T11:04:38;13.00;99.90
54168;DHT22;68429;50.958;3.592;2023-03-25T11:07:18;12.90;99.90
54168;DHT22;68429;50.958;3.592;2023-03-25T11:09:44;13.10;99.90
54168;DHT22;68429;50.958;3.592;2023-03-25T11:12:11;13.10;99.90
54168;DHT22;68429;50.958;3.592;2023-03-25T11:14:38;13.90;99.90
54168;DHT22;68429;50.958;3.592;2023-03-25T11:17:15;14.00;99.90
54168;DHT22;68429;50.958;3.592;2023-03-25T11:19:55;13.90;99.90
54168;DHT22;68429;50.958;3.592;2023-03-25T11:22:25;13.80;99.90
54168;DHT22;68429;50.958;3.592;2023-03-25T11:24:58;14.80;99.90
54168;DHT22;68429;50.958;3.592;2023-03-25T11:27:26;14.90;99.90
54168;DHT22;68429;50.958;3.592;2023-03-25T11:29:59;15.40;99.90
54168;DHT22;68429;50.958;3.592;2023-03-25T11:32:37;15.70;99.90
54168;DHT22;68429;50.958;3.592;2023-03-25T11:35:20;15.10;99.90
54168;DHT22;68429;50.958;3.592;2023-03-25T11:37:52;14.40;99.90
54168;DHT22;68429;50.958;3.592;2023-03-25T11:40:18;14.80;99.90
54168;DHT22;68429;50.958;3.592;2023-03-25T11:42:54;14.20;99.90
54168;DHT22;68429;50.958;3.592;2023-03-25T11:45:32;13.90;99.90
54168;DHT22;68429;50.958;3.592;2023-03-25T11:48:19;14.10;99.90
54168;DHT22;68429;50.958;3.592;2023-03-25T11:50:49;14.60;99.90
54168;DHT22;68429;50.958;3.592;2023-03-25T11:53:19;14.80;99.90
54168;DHT22;68429;50.958;3.592;2023-03-25T11:55:51;14.40;99.90
54168;DHT22;68429;50.958;3.592;2023-03-25T11:58:22;14.30;99.90
54168;DHT22;68429;50.958;3.592;2023-03-25T12:01:00;15.10;99.90
54168;DHT22;68429;50.958;3.592;2023-03-25T12:03:27;14.30;99.90
54168;DHT22;68429;50.958;3.592;2023-03-25T12:08:23;15.30;99.90
54168;DHT22;68429;50.958;3.592;2023-03-25T12:11:59;16.10;99.90
54168;DHT22;68429;50.958;3.592;2023-03-25T12:30:33;15.50;99.90
54168;DHT22;68429;50.958;3.592;2023-03-25T12:36:23;13.70;99.90
54168;DHT22;68429;50.958;3.592;2023-03-25T12:39:12;13.50;99.90
54168;DHT22;68429;50.958;3.592;2023-03-25T12:42:05;13.50;99.90
54168;DHT22;68429;50.958;3.592;2023-03-25T12:47:18;13.20;99.90
54168;DHT22;68429;50.958;3.592;2023-03-25T12:52:42;12.90;99.90
54168;DHT22;68429;50.958;3.592;2023-03-25T12:55:22;12.60;99.90
54168;DHT22;68429;50.958;3.592;2023-03-25T12:58:12;12.50;99.90
54168;DHT22;68429;50.958;3.592;2023-03-25T13:06:13;13.00;99.90
54168;DHT22;68429;50.958;3.592;2023-03-25T13:11:17;13.70;99.90
54168;DHT22;68429;50.958;3.592;2023-03-25T13:13:48;14.60;99.90
54168;DHT22;68429;50.958;3.592;2023-03-25T13:16:19;14.30;99.90
54168;DHT22;68429;50.958;3.592;2023-03-25T13:18:59;14.60;99.90
54168;DHT22;68429;50.958;3.592;2023-03-25T13:21:29;14.90;99.90
54168;DHT22;68429;50.958;3.592;2023-03-25T13:24:02;15.00;99.90
54168;DHT22;68429;50.958;3.592;2023-03-25T13:26:30;15.70;99.90
54168;DHT22;68429;50.958;3.592;2023-03-25T13:29:01;14.90;99.90
54168;DHT22;68429;50.958;3.592;2023-03-25T13:31:32;15.60;99.90
54168;DHT22;68429;50.958;3.592;2023-03-25T13:36:44;14.50;99.90
54168;DHT22;68429;50.958;3.592;2023-03-25T13:39:18;14.00;99.90
54168;DHT22;68429;50.958;3.592;2023-03-25T13:41:52;13.70;99.90
54168;DHT22;68429;50.958;3.592;2023-03-25T13:44:31;14.20;99.90
54168;DHT22;68429;50.958;3.592;2023-03-25T13:47:22;14.20;99.90
54168;DHT22;68429;50.958;3.592;2023-03-25T13:49:50;13.50;99.90
54168;DHT22;68429;50.958;3.592;2023-03-25T13:52:19;13.30;99.90
54168;DHT22;68429;50.958;3.592;2023-03-25T13:55:02;13.50;99.90
54168;DHT22;68429;50.958;3.592;2023-03-25T14:11:17;15.00;99.90
54168;DHT22;68429;50.958;3.592;2023-03-25T14:13:53;14.90;99.90
54168;DHT22;68429;50.958;3.592;2023-03-25T14:16:24;14.60;99.90
54168;DHT22;68429;50.958;3.592;2023-03-25T14:18:57;14.70;99.90
54168;DHT22;68429;50.958;3.592;2023-03-25T14:21:50;14.90;99.90
54168;DHT22;68429;50.958;3.592;2023-03-25T14:24:32;14.70;99.90
54168;DHT22;68429;50.958;3.592;2023-03-25T14:27:21;13.90;99.90
54168;DHT22;68429;50.958;3.592;2023-03-25T14:30:40;13.40;99.90
54168;DHT22;68429;50.958;3.592;2023-03-25T14:32:47;14.30;99.90
54168;DHT22;68429;50.958;3.592;2023-03-25T14:48:37;14.30;99.90
54168;DHT22;68429;50.958;3.592;2023-03-25T14:51:35;14.30;99.90
54168;DHT22;68429;50.958;3.592;2023-03-25T14:54:19;14.00;99.90
54168;DHT22;68429;50.958;3.592;2023-03-25T14:59:35;13.80;99.90
54168;DHT22;68429;50.958;3.592;2023-03-25T15:02:08;13.70;99.90
54168;DHT22;68429;50.958;3.592;2023-03-25T15:04:36;13.60;99.90
54168;DHT22;68429;50.958;3.592;2023-03-25T15:07:07;13.50;99.90
54168;DHT22;68429;50.958;3.592;2023-03-25T15:09:48;13.60;99.90
54168;DHT22;68429;50.958;3.592;2023-03-25T15:12:18;14.00;99.90
54168;DHT22;68429;50.958;3.592;2023-03-25T15:14:48;14.70;99.90
54168;DHT22;68429;50.958;3.592;2023-03-25T15:17:43;14.80;99.90
54168;DHT22;68429;50.958;3.592;2023-03-25T15:20:13;14.40;99.90
54168;DHT22;68429;50.958;3.592;2023-03-25T15:25:54;15.00;99.90
54168;DHT22;68429;50.958;3.592;2023-03-25T15:31:05;14.10;99.90
54168;DHT22;68429;50.958;3.592;2023-03-25T15:45:12;12.70;99.90
54168;DHT22;68429;50.958;3.592;2023-03-25T15:56:20;12.60;99.90
54168;DHT22;68429;50.958;3.592;2023-03-25T15:59:01;12.60;99.90
54168;DHT22;68429;50.958;3.592;2023-03-25T16:01:34;12.80;99.90
54168;DHT22;68429;50.958;3.592;2023-03-25T16:04:31;13.20;99.90
54168;DHT22;68429;50.958;3.592;2023-03-25T16:07:00;13.40;99.90
54168;DHT22;68429;50.958;3.592;2023-03-25T16:09:28;13.30;99.90
54168;DHT22;68429;50.958;3.592;2023-03-25T16:11:58;13.20;99.90
54168;DHT22;68429;50.958;3.592;2023-03-25T16:14:28;13.00;99.90
54168;DHT22;68429;50.958;3.592;2023-03-25T16:16:56;12.80;99.90
54168;DHT22;68429;50.958;3.592;2023-03-25T16:19:43;12.80;99.90
54168;DHT22;68429;50.958;3.592;2023-03-25T16:24:49;12.80;99.90
54168;DHT22;68429;50.958;3.592;2023-03-25T16:27:42;13.00;99.90
54168;DHT22;68429;50.958;3.592;2023-03-25T16:33:28;13.00;99.90
54168;DHT22;68429;50.958;3.592;2023-03-25T16:35:56;12.90;99.90
54168;DHT22;68429;50.958;3.592;2023-03-25T16:38:22;12.80;99.90
54168;DHT22;68429;50.958;3.592;2023-03-25T16:40:50;12.90;99.90
54168;DHT22;68429;50.958;3.592;2023-03-25T16:43:22;12.70;99.90
54168;DHT22;68429;50.958;3.592;2023-03-25T16:45:50;12.70;99.90
54168;DHT22;68429;50.958;3.592;2023-03-25T16:48:32;12.60;99.90
54168;DHT22;68429;50.958;3.592;2023-03-25T16:51:13;12.50;99.90
54168;DHT22;68429;50.958;3.592;2023-03-25T16:53:41;12.40;99.90
54168;DHT22;68429;50.958;3.592;2023-03-25T16:59:32;12.10;99.90
54168;DHT22;68429;50.958;3.592;2023-03-25T17:01:41;12.00;99.90
54168;DHT22;68429;50.958;3.592;2023-03-25T17:04:17;12.00;99.90
54168;DHT22;68429;50.958;3.592;2023-03-25T17:06:45;12.00;99.90
54168;DHT22;68429;50.958;3.592;2023-03-25T17:09:18;11.90;99.90
54168;DHT22;68429;50.958;3.592;2023-03-25T17:11:46;11.90;99.90
54168;DHT22;68429;50.958;3.592;2023-03-25T17:14:20;11.90;99.90
54168;DHT22;68429;50.958;3.592;2023-03-25T17:16:49;11.90;99.90
54168;DHT22;68429;50.958;3.592;2023-03-25T17:19:17;11.90;99.90
54168;DHT22;68429;50.958;3.592;2023-03-25T17:22:03;11.80;99.90
54168;DHT22;68429;50.958;3.592;2023-03-25T17:24:38;11.80;99.90
54168;DHT22;68429;50.958;3.592;2023-03-25T17:27:14;11.80;99.90
54168;DHT22;68429;50.958;3.592;2023-03-25T17:30:13;11.70;99.90
54168;DHT22;68429;50.958;3.592;2023-03-25T17:32:41;11.60;99.90
54168;DHT22;68429;50.958;3.592;2023-03-25T17:35:23;11.50;99.90
54168;DHT22;68429;50.958;3.592;2023-03-25T17:37:52;11.50;99.90
54168;DHT22;68429;50.958;3.592;2023-03-25T17:40:26;11.30;99.90
54168;DHT22;68429;50.958;3.592;2023-03-25T17:42:53;11.30;99.90
54168;DHT22;68429;50.958;3.592;2023-03-25T17:45:19;11.20;99.90
54168;DHT22;68429;50.958;3.592;2023-03-25T17:47:47;11.20;99.90
54168;DHT22;68429;50.958;3.592;2023-03-25T17:50:24;11.20;99.90
54168;DHT22;68429;50.958;3.592;2023-03-25T17:52:52;11.20;99.90
54168;DHT22;68429;50.958;3.592;2023-03-25T17:55:18;11.20;99.90
54168;DHT22;68429;50.958;3.592;2023-03-25T17:57:44;11.20;99.90
54168;DHT22;68429;50.958;3.592;2023-03-25T18:00:14;11.10;99.90
54168;DHT22;68429;50.958;3.592;2023-03-25T18:02:43;11.10;99.90
54168;DHT22;68429;50.958;3.592;2023-03-25T18:05:10;11.10;99.90
54168;DHT22;68429;50.958;3.592;2023-03-25T18:07:36;11.00;99.90
54168;DHT22;68429;50.958;3.592;2023-03-25T18:10:04;11.00;99.90
54168;DHT22;68429;50.958;3.592;2023-03-25T18:12:31;11.00;99.90
54168;DHT22;68429;50.958;3.592;2023-03-25T18:14:56;11.00;99.90
54168;DHT22;68429;50.958;3.592;2023-03-25T18:17:22;10.90;99.90
54168;DHT22;68429;50.958;3.592;2023-03-25T18:19:48;10.80;99.90
54168;DHT22;68429;50.958;3.592;2023-03-25T18:22:13;10.70;99.90
54168;DHT22;68429;50.958;3.592;2023-03-25T18:24:39;10.70;99.90
54168;DHT22;68429;50.958;3.592;2023-03-25T18:27:04;10.70;99.90
54168;DHT22;68429;50.958;3.592;2023-03-25T18:29:30;10.60;99.90
54168;DHT22;68429;50.958;3.592;2023-03-25T18:31:57;10.50;99.90
54168;DHT22;68429;50.958;3.592;2023-03-25T18:34:23;10.50;99.90
54168;DHT22;68429;50.958;3.592;2023-03-25T18:36:51;10.50;99.90
54168;DHT22;68429;50.958;3.592;2023-03-25T18:39:21;10.40;99.90